DIAP/ABJ METAR and TAF weather

Enter ICAO airport designator
Station Type Date Time Source
DIAP METAR 2020/12/05 05:00 UTC NOAA

DIAP 050500Z 24007KT 8000 FEW012 BKN020 27/25 Q1011 NOSIG


Station Type Date Time Source
DIAP Decoded METAR 2020/12/05 05:00 UTC NOAA

Abidjan, Cote d'Ivoire (DIAP) 05-15N 003-56W 8M
Dec 05, 2020 - 12:00 AM EST / 2020.12.05 0500 UTC
Wind: from the WSW (240 degrees) at 8 MPH (7 KT):0
Visibility: 4 mile(s):0
Sky conditions: mostly cloudy
Temperature: 80 F (27 C)
Dew Point: 77 F (25 C)
Relative Humidity: 88%
Pressure (altimeter): 29.85 in. Hg (1011 hPa)
ob: DIAP 050500Z 24007KT 8000 FEW012 BKN020 27/25 Q1011 NOSIG
cycle: 5

Station Type Date Time Source
DIAP TAF 2020/12/04 18:57 UTC NOAA

TAF DIAP 041731Z 0418/0524 24010KT 8000 FEW013
BECMG 0422/0423 VRB03KT PROB30
TEMPO 0504/0507 4000 BR BKN010 PROB40
TEMPO 0508/0510 BKN012
BECMG 0510/0511 23010KT

Example: see airport list